St. Cloud Regional Airport

Airport
ICAO code: 
KSTC
Summary
ICAO Region: 
NAM
Territory: 
Location: 
St. Cloud, Minnesota,
Coordinates: 
Aerial View: 
45° 32' 47" N, 94° 3' 34.999" W
Airport CFIT: 
Altimeter Temperature Error Correction
Airport GND: 
Aircraft Ground De/Anti Icing
Airport RE: 
Landing on Contaminated Runways
Metar
Observation
KSTC 021453Z 31010KT 10SM CLR 03/M02 A2989 RMK AO2 SLP137 T00281017 53035
Station
St Cloud, St Cloud Regional Airport
Date/Time
2021-12-02 14:53:00
Wind direction
310°
Wind speed
10 kts
Lowest cloud amount
n/a
Temperature
2.8°C
Dew point
-1.7°C
Humidity
72%
Weather condition
n/a

Description

St. Cloud Regional Airport is a public airport located 6 km east of the central business district of St. Cloud, a city in Stearns County, Minnesota.

Climatology

Humid Continental climate (Köppen climate classification Dfb) - Variable weather patterns and a large seasonal temperature variance. Summers are often warm and humid with frequent thunderstorms and winters can be very cold with frequent snowfall and persistent snow cover.

Runways

Designator Length Width Surface Rops
5/23 914 23 ASP Yes/Yes
13/31 2134 46 CON Yes/Yes
Airport map: 
Aerial View: 

SKYbrary Partners:

Safety knowledge contributed by: